Terminal Aerodrome Forecast
Issued by NWS Omaha/Valley, NE

Home | Current Version | Previous Version | Graphics & Text | Print | Product List | Glossary On
Versions: 1 2 3 4 5 6 7 8 9 10 11 12 13 14 15 16 17 18 19 20 21 22 23 24 25 26 27 28 29
000
FTUS43 KOAX 132320
TAFOFK
TAF
KOFK 132320Z 1400/1424 18009KT P6SM BKN040
     FM140200 19005KT P6SM VCTS SCT030CB BKN090
     FM141000 21005KT P6SM BKN050
      TEMPO 1410/1414 BKN015
     FM141500 14004KT P6SM BKN020
     FM141700 14004KT P6SM SCT025 SCT100=

USA.gov is the U.S. government's official web portal to all federal, state and local government web resources and services.